Academy, South Dakota
Current Conditions -  °F | °C
As of 11:55 PM on Thursday 27 Nov 2014 (Local Time) from K9V9 Reporting Station
Clear Clear  
Wind Chill: 26°   Ceiling: Unl
Heat Index: 26°   Visibility: 10mi
Dew Point: 19°   Wind: 3mph
Humidity: 75%   Direction: 130°SE
Pressure: 29.85"   Gusts: NA
Location:  43.4255°N, 98.9806°W
Report Text: K9V9 280555Z AUTO 13003KT 10SM CLR M03/M07 A2985 RMK AO2 T10331072 11008 21046 410081125
Loading
Personal Weather Stations






























Interactive Weather Map New forecast layout! Learn more

10-Day Weather Forecast

Advertisements
Track Severe Weather on mobile